Terminal Aerodrome Forecast
Issued by NWS Cleveland, OH

Home | Current Version | Previous Version | Graphics & Text | Print | Product List | Glossary On
Versions: 1 2 3 4 5 6 7 8 9 10 11 12 13 14 15 16 17
000
FTUS41 KCLE 210534
TAFMFD
TAF
KMFD 210534Z 2106/2206 VRB05KT P6SM VCSH SCT040 BKN090
      TEMPO 2106/2108 6SM -SHRA BKN035
     FM211000 24005KT P6SM BKN050
     FM211400 30006KT P6SM SCT050
     FM220000 VRB05KT P6SM BKN200=

USA.gov is the U.S. government's official web portal to all federal, state and local government web resources and services.